createdAt,value
2022-12-18T00:01:17.147Z,-5.40
2022-12-18T00:03:44.420Z,-5.40
2022-12-18T00:06:12.656Z,-5.50
2022-12-18T00:08:39.525Z,-5.50
2022-12-18T00:11:12.131Z,-5.50
2022-12-18T00:13:39.214Z,-5.60
2022-12-18T00:16:08.953Z,-5.60
2022-12-18T00:18:36.210Z,-5.60
2022-12-18T00:21:05.993Z,-5.60
2022-12-18T00:23:34.351Z,-5.60
2022-12-18T00:26:06.630Z,-5.60
2022-12-18T00:28:34.006Z,-5.60
2022-12-18T00:31:04.435Z,-5.60
2022-12-18T00:33:31.661Z,-5.70
2022-12-18T00:36:16.817Z,-5.90
2022-12-18T00:38:44.608Z,-6.00
2022-12-18T00:41:12.914Z,-6.10
2022-12-18T00:43:41.015Z,-6.10
2022-12-18T00:46:08.096Z,-6.10
2022-12-18T00:48:34.835Z,-6.20
2022-12-18T00:51:01.612Z,-6.30
2022-12-18T00:53:31.320Z,-6.30
2022-12-18T00:55:59.182Z,-6.30
2022-12-18T00:58:25.873Z,-6.30
2022-12-18T01:00:52.610Z,-6.30
2022-12-18T01:03:19.357Z,-6.40
2022-12-18T01:05:46.140Z,-6.40
2022-12-18T01:08:12.859Z,-6.40
2022-12-18T01:10:42.449Z,-6.40
2022-12-18T01:13:09.440Z,-6.40
2022-12-18T01:15:36.739Z,-6.30
2022-12-18T01:18:03.597Z,-6.20
2022-12-18T01:20:30.327Z,-6.10
2022-12-18T01:22:56.996Z,-6.00
2022-12-18T01:25:23.702Z,-6.00
2022-12-18T01:27:50.437Z,-5.90
2022-12-18T01:30:17.206Z,-5.90
2022-12-18T01:32:43.926Z,-6.00
2022-12-18T01:35:10.610Z,-5.90
2022-12-18T01:37:37.309Z,-5.90
2022-12-18T01:40:05.485Z,-5.90
2022-12-18T01:42:32.176Z,-5.90
2022-12-18T01:45:17.130Z,-5.90
2022-12-18T01:48:10.234Z,-5.90
2022-12-18T01:50:43.057Z,-5.90
2022-12-18T01:53:19.981Z,-5.90
2022-12-18T01:55:50.853Z,-5.90
2022-12-18T01:58:19.190Z,-5.90
2022-12-18T02:00:45.972Z,-5.90
2022-12-18T02:03:13.204Z,-5.90
2022-12-18T02:05:48.110Z,-6.00
2022-12-18T02:08:22.744Z,-5.90
2022-12-18T02:11:04.515Z,-6.00
2022-12-18T02:13:57.959Z,-5.90
2022-12-18T02:16:36.830Z,-5.90
2022-12-18T02:19:21.190Z,-5.90
2022-12-18T02:22:10.095Z,-5.90
2022-12-18T02:24:49.151Z,-6.00
2022-12-18T02:27:16.406Z,-6.00
2022-12-18T02:30:03.301Z,-6.10
2022-12-18T02:32:35.290Z,-6.10
2022-12-18T02:35:05.602Z,-6.10
2022-12-18T02:37:34.545Z,-6.00
2022-12-18T02:40:02.115Z,-6.00
2022-12-18T02:42:29.435Z,-6.10
2022-12-18T02:44:56.131Z,-6.10
2022-12-18T02:47:25.517Z,-6.10
2022-12-18T02:50:27.589Z,-6.10
2022-12-18T02:53:19.892Z,-6.10
2022-12-18T02:56:22.996Z,-6.20
2022-12-18T02:59:07.930Z,-6.30
2022-12-18T03:01:34.696Z,-6.30
2022-12-18T03:04:17.130Z,-6.20
2022-12-18T03:06:49.392Z,-6.20
2022-12-18T03:09:26.050Z,-6.20
2022-12-18T03:12:19.035Z,-6.20
2022-12-18T03:14:50.873Z,-6.20
2022-12-18T03:17:21.657Z,-6.20
2022-12-18T03:19:50.370Z,-6.20
2022-12-18T03:22:17.958Z,-6.20
2022-12-18T03:24:47.193Z,-6.30
2022-12-18T03:27:18.415Z,-6.30
2022-12-18T03:30:03.808Z,-6.30
2022-12-18T03:32:34.035Z,-6.30
2022-12-18T03:35:05.382Z,-6.20
2022-12-18T03:37:32.524Z,-6.30
2022-12-18T03:39:59.421Z,-6.40
2022-12-18T03:42:40.011Z,-6.50
2022-12-18T03:45:15.697Z,-6.60
2022-12-18T03:47:45.252Z,-6.60
2022-12-18T03:50:26.996Z,-6.60
2022-12-18T03:53:44.596Z,-6.60
2022-12-18T03:56:13.126Z,-6.70
2022-12-18T03:58:42.181Z,-6.70
2022-12-18T04:01:10.927Z,-6.80
2022-12-18T04:03:40.040Z,-6.80
2022-12-18T04:06:08.249Z,-6.90
2022-12-18T04:08:35.894Z,-6.90
2022-12-18T04:11:03.113Z,-6.90
2022-12-18T04:13:34.191Z,-6.90
2022-12-18T04:16:01.411Z,-6.80
2022-12-18T04:18:28.261Z,-6.80
2022-12-18T04:20:55.325Z,-6.90
2022-12-18T04:23:22.569Z,-7.00
2022-12-18T04:25:49.927Z,-7.00
2022-12-18T04:28:16.662Z,-7.00
2022-12-18T04:30:43.457Z,-7.10
2022-12-18T04:33:18.803Z,-7.20
2022-12-18T04:35:46.595Z,-7.30
2022-12-18T04:38:13.292Z,-7.30
2022-12-18T04:40:39.987Z,-7.40
2022-12-18T04:43:08.727Z,-7.50
2022-12-18T04:45:35.754Z,-7.50
2022-12-18T04:48:05.585Z,-7.50
2022-12-18T04:50:32.748Z,-7.50
2022-12-18T04:52:59.475Z,-7.50
2022-12-18T04:55:29.129Z,-7.40
2022-12-18T04:57:55.824Z,-7.50
2022-12-18T05:00:23.156Z,-7.50
2022-12-18T05:02:49.982Z,-7.50
2022-12-18T05:05:16.887Z,-7.50
2022-12-18T05:07:43.736Z,-7.60
2022-12-18T05:10:10.982Z,-7.60
2022-12-18T05:12:58.995Z,-7.50
2022-12-18T05:15:31.428Z,-7.50
2022-12-18T05:17:59.426Z,-7.50
2022-12-18T05:20:27.233Z,-7.50
2022-12-18T05:22:55.134Z,-7.60
2022-12-18T05:25:22.823Z,-7.60
2022-12-18T05:27:49.655Z,-7.50
2022-12-18T05:30:16.884Z,-7.50
2022-12-18T05:32:44.250Z,-7.50
2022-12-18T05:35:14.519Z,-7.50
2022-12-18T05:37:43.289Z,-7.50
2022-12-18T05:40:10.840Z,-7.60
2022-12-18T05:42:37.747Z,-7.60
2022-12-18T05:45:06.077Z,-7.60
2022-12-18T05:47:32.885Z,-7.60
2022-12-18T05:49:59.585Z,-7.60
2022-12-18T05:52:26.400Z,-7.60
2022-12-18T05:54:53.107Z,-7.60
2022-12-18T05:57:19.865Z,-7.60
2022-12-18T05:59:46.543Z,-7.60
2022-12-18T06:02:13.429Z,-7.60
2022-12-18T06:04:40.324Z,-7.60
2022-12-18T06:07:07.335Z,-7.60
2022-12-18T06:09:34.110Z,-7.70
2022-12-18T06:12:00.964Z,-7.70
2022-12-18T06:14:27.729Z,-7.70
2022-12-18T06:16:54.440Z,-7.80
2022-12-18T06:19:21.215Z,-7.80
2022-12-18T06:21:48.011Z,-7.90
2022-12-18T06:24:14.762Z,-7.90
2022-12-18T06:26:41.666Z,-8.00
2022-12-18T06:29:08.530Z,-8.00
2022-12-18T06:31:38.348Z,-7.90
2022-12-18T06:34:05.736Z,-8.00
2022-12-18T06:36:32.874Z,-8.00
2022-12-18T06:38:59.840Z,-8.00
2022-12-18T06:41:26.878Z,-8.00
2022-12-18T06:43:56.941Z,-8.00
2022-12-18T06:46:26.384Z,-8.10
2022-12-18T06:48:53.671Z,-8.10
2022-12-18T06:51:24.901Z,-8.10
2022-12-18T06:53:51.808Z,-8.20
2022-12-18T06:56:18.593Z,-8.20
2022-12-18T06:58:45.325Z,-8.20
2022-12-18T07:01:13.097Z,-8.20
2022-12-18T07:03:42.091Z,-8.20
2022-12-18T07:06:20.514Z,-8.10
2022-12-18T07:08:47.710Z,-8.00
2022-12-18T07:11:15.087Z,-8.00
2022-12-18T07:13:42.667Z,-8.00
2022-12-18T07:16:18.311Z,-7.90
2022-12-18T07:18:48.076Z,-7.90
2022-12-18T07:21:18.155Z,-7.80
2022-12-18T07:23:47.255Z,-7.80
2022-12-18T07:26:16.257Z,-7.80
2022-12-18T07:28:43.810Z,-7.80
2022-12-18T07:31:16.717Z,-7.80
2022-12-18T07:33:44.361Z,-7.90
2022-12-18T07:36:11.617Z,-7.90
2022-12-18T07:38:38.788Z,-7.90
2022-12-18T07:41:08.809Z,-7.90
2022-12-18T07:43:38.522Z,-7.80
2022-12-18T07:46:05.919Z,-7.80
2022-12-18T07:48:32.788Z,-7.80
2022-12-18T07:51:05.116Z,-7.70
2022-12-18T07:53:35.368Z,-7.70
2022-12-18T07:58:54.513Z,-8.10
2022-12-18T08:01:21.515Z,-8.10
2022-12-18T08:03:48.410Z,-8.00
2022-12-18T08:06:16.599Z,-8.10
2022-12-18T08:08:43.456Z,-8.00
2022-12-18T08:11:13.130Z,-8.00
2022-12-18T08:13:40.204Z,-8.00
2022-12-18T08:16:08.474Z,-7.90
2022-12-18T08:18:37.439Z,-7.90
2022-12-18T08:21:11.795Z,-7.80
2022-12-18T08:23:42.737Z,-7.70
2022-12-18T08:26:11.393Z,-7.60
2022-12-18T08:28:38.398Z,-7.50
2022-12-18T08:31:05.589Z,-7.40
2022-12-18T08:33:33.010Z,-7.30
2022-12-18T08:36:00.429Z,-7.20
2022-12-18T08:38:27.483Z,-7.20
2022-12-18T08:41:01.471Z,-7.20
2022-12-18T08:43:47.195Z,-7.10
2022-12-18T08:46:17.010Z,-7.10
2022-12-18T08:48:43.929Z,-6.90
2022-12-18T08:51:10.680Z,-6.90
2022-12-18T08:53:38.332Z,-6.90
2022-12-18T08:56:06.049Z,-6.80
2022-12-18T08:58:32.847Z,-6.70
2022-12-18T09:01:04.159Z,-6.70
2022-12-18T09:03:31.093Z,-6.50
2022-12-18T09:05:58.024Z,-6.50
2022-12-18T09:08:24.797Z,-6.30
2022-12-18T09:10:52.197Z,-6.30
2022-12-18T09:13:19.837Z,-6.30
2022-12-18T09:15:52.510Z,-6.30
2022-12-18T09:18:21.148Z,-6.30
2022-12-18T09:20:48.335Z,-6.20
2022-12-18T09:23:15.658Z,-6.00
2022-12-18T09:25:42.506Z,-6.00
2022-12-18T09:28:15.520Z,-6.00
2022-12-18T09:30:46.049Z,-5.90
2022-12-18T09:33:12.978Z,-5.80
2022-12-18T09:35:41.554Z,-5.80
2022-12-18T09:38:12.287Z,-5.70
2022-12-18T09:40:52.654Z,-5.60
2022-12-18T09:43:28.070Z,-5.50
2022-12-18T09:46:00.033Z,-5.40
2022-12-18T09:48:49.008Z,-5.40
2022-12-18T09:51:30.281Z,-5.30
2022-12-18T09:54:12.704Z,-5.30
2022-12-18T09:56:43.551Z,-5.30
2022-12-18T09:59:40.754Z,-5.10
2022-12-18T10:02:18.264Z,-5.00
2022-12-18T10:04:49.732Z,-5.00
2022-12-18T10:07:25.184Z,-4.90
2022-12-18T10:10:08.002Z,-4.90
2022-12-18T10:12:50.328Z,-4.80
2022-12-18T10:15:19.704Z,-4.80
2022-12-18T10:18:20.202Z,-4.80
2022-12-18T10:20:55.698Z,-4.60
2022-12-18T10:23:47.863Z,-4.50
2022-12-18T10:26:15.311Z,-4.40
2022-12-18T10:28:44.612Z,-4.30
2022-12-18T10:31:20.602Z,-4.20
2022-12-18T10:33:47.548Z,-4.00
2022-12-18T10:36:14.659Z,-4.00
2022-12-18T10:38:42.193Z,-4.00
2022-12-18T10:41:23.068Z,-3.90
2022-12-18T10:44:09.884Z,-3.80
2022-12-18T10:46:36.683Z,-3.80
2022-12-18T10:49:03.759Z,-3.70
2022-12-18T10:51:37.128Z,-3.60
2022-12-18T10:54:28.742Z,-3.50
2022-12-18T10:57:30.231Z,-3.50
2022-12-18T10:59:58.911Z,-3.40
2022-12-18T11:02:35.968Z,-3.30
2022-12-18T11:05:04.483Z,-3.10
2022-12-18T11:07:50.433Z,-3.10
2022-12-18T11:10:19.702Z,-3.10
2022-12-18T11:12:47.038Z,-3.10
2022-12-18T11:15:21.305Z,-3.10
2022-12-18T11:17:50.490Z,-3.10
2022-12-18T11:20:34.648Z,-3.00
2022-12-18T11:23:11.303Z,-2.90
2022-12-18T11:25:38.095Z,-2.90
2022-12-18T11:28:26.124Z,-2.80
2022-12-18T11:31:16.863Z,-2.70
2022-12-18T11:34:26.764Z,-2.60
2022-12-18T11:36:45.401Z,-2.50
2022-12-18T11:39:39.473Z,-2.40
2022-12-18T11:42:17.072Z,-2.30
2022-12-18T11:44:51.032Z,-2.30
2022-12-18T11:47:38.220Z,-2.20
2022-12-18T11:50:38.301Z,-2.10
2022-12-18T11:53:06.496Z,-2.00
2022-12-18T11:56:07.294Z,-2.00
2022-12-18T11:59:15.627Z,-2.00
2022-12-18T12:01:51.686Z,-2.00
2022-12-18T12:04:40.470Z,-2.10
2022-12-18T12:07:35.630Z,-2.20
2022-12-18T12:10:23.882Z,-2.10
2022-12-18T12:12:59.444Z,-2.00
2022-12-18T12:15:48.114Z,-1.90
2022-12-18T12:18:26.703Z,-1.80
2022-12-18T12:21:05.511Z,-1.70
2022-12-18T12:23:37.929Z,-1.70
2022-12-18T12:26:12.375Z,-1.70
2022-12-18T12:29:25.144Z,-1.80
2022-12-18T12:32:15.034Z,-1.80
2022-12-18T12:35:01.682Z,-1.70
2022-12-18T12:37:36.461Z,-1.70
2022-12-18T12:40:26.875Z,-1.70
2022-12-18T12:43:15.116Z,-1.70
2022-12-18T12:45:48.058Z,-1.70
2022-12-18T12:48:41.130Z,-1.70
2022-12-18T12:51:32.857Z,-1.70
2022-12-18T12:54:02.226Z,-1.70
2022-12-18T12:56:52.009Z,-1.80
2022-12-18T13:00:04.477Z,-1.80
2022-12-18T13:03:08.843Z,-1.80
2022-12-18T13:05:51.773Z,-1.70
2022-12-18T13:08:26.605Z,-1.70
2022-12-18T13:11:16.404Z,-1.70
2022-12-18T13:13:55.587Z,-1.80
2022-12-18T13:16:28.434Z,-1.80
2022-12-18T13:18:59.810Z,-1.90
2022-12-18T13:21:33.313Z,-1.90
2022-12-18T13:24:25.550Z,-2.00
2022-12-18T13:26:52.352Z,-2.00
2022-12-18T13:29:42.983Z,-2.00
2022-12-18T13:32:23.074Z,-2.00
2022-12-18T13:35:23.020Z,-1.90
2022-12-18T13:37:55.843Z,-1.90
2022-12-18T13:40:40.496Z,-2.00
2022-12-18T13:43:22.482Z,-2.00
2022-12-18T13:46:00.045Z,-2.10
2022-12-18T13:48:30.112Z,-2.10
2022-12-18T13:51:04.421Z,-2.20
2022-12-18T13:53:54.542Z,-2.20
2022-12-18T13:56:27.622Z,-2.10
2022-12-18T13:59:17.207Z,-2.10
2022-12-18T14:01:49.456Z,-2.10
2022-12-18T14:04:34.292Z,-2.10
2022-12-18T14:07:08.314Z,-2.10
2022-12-18T14:09:43.147Z,-2.10
2022-12-18T14:12:38.165Z,-2.10
2022-12-18T14:15:06.997Z,-2.10
2022-12-18T14:17:34.578Z,-2.10
2022-12-18T14:20:02.171Z,-2.20
2022-12-18T14:22:30.427Z,-2.20
2022-12-18T14:25:18.813Z,-2.20
2022-12-18T14:27:54.822Z,-2.30
2022-12-18T14:30:24.581Z,-2.30
2022-12-18T14:33:03.266Z,-2.30
2022-12-18T14:35:30.026Z,-2.30
2022-12-18T14:38:16.727Z,-2.30
2022-12-18T14:40:44.609Z,-2.30
2022-12-18T14:43:12.270Z,-2.40
2022-12-18T14:45:45.123Z,-2.50
2022-12-18T14:48:23.570Z,-2.50
2022-12-18T14:51:03.321Z,-2.50
2022-12-18T14:53:44.398Z,-2.50
2022-12-18T14:56:25.609Z,-2.50
2022-12-18T14:58:59.900Z,-2.50
2022-12-18T15:01:36.115Z,-2.60
2022-12-18T15:04:05.262Z,-2.60
2022-12-18T15:06:38.775Z,-2.60
2022-12-18T15:09:25.039Z,-2.60
2022-12-18T15:12:00.939Z,-2.70
2022-12-18T15:14:40.686Z,-2.60
2022-12-18T15:17:22.374Z,-2.70
2022-12-18T15:19:52.800Z,-2.70
2022-12-18T15:22:37.771Z,-2.80
2022-12-18T15:25:37.541Z,-2.80
2022-12-18T15:28:16.674Z,-2.80
2022-12-18T15:30:59.796Z,-2.80
2022-12-18T15:33:30.693Z,-2.80
2022-12-18T15:36:02.851Z,-2.80
2022-12-18T15:38:29.715Z,-2.90
2022-12-18T15:40:56.546Z,-2.90
2022-12-18T15:43:36.380Z,-2.90
2022-12-18T15:46:07.466Z,-2.90
2022-12-18T15:48:36.380Z,-2.90
2022-12-18T15:51:06.055Z,-2.90
2022-12-18T15:53:34.882Z,-2.80
2022-12-18T15:56:20.185Z,-2.80
2022-12-18T15:58:46.941Z,-2.80
2022-12-18T16:01:26.993Z,-2.90
2022-12-18T16:03:54.912Z,-2.80
2022-12-18T16:06:22.867Z,-2.90
2022-12-18T16:08:49.770Z,-2.90
2022-12-18T16:11:40.211Z,-2.90
2022-12-18T16:14:10.766Z,-2.90
2022-12-18T16:16:37.504Z,-2.90
2022-12-18T16:19:04.177Z,-2.90
2022-12-18T16:21:34.131Z,-2.90
2022-12-18T16:24:01.006Z,-2.90
2022-12-18T16:26:27.679Z,-2.90
2022-12-18T16:28:54.617Z,-2.90
2022-12-18T16:31:21.896Z,-2.90
2022-12-18T16:33:48.595Z,-2.90
2022-12-18T16:36:15.445Z,-2.80
2022-12-18T16:38:42.193Z,-2.80
2022-12-18T16:41:32.982Z,-2.80
2022-12-18T16:44:01.069Z,-2.80
2022-12-18T16:46:27.842Z,-2.80
2022-12-18T16:48:54.680Z,-2.80
2022-12-18T16:51:21.500Z,-2.80
2022-12-18T16:53:48.389Z,-2.80
2022-12-18T16:56:15.164Z,-2.80
2022-12-18T16:58:41.838Z,-2.80
2022-12-18T17:01:11.887Z,-2.80
2022-12-18T17:03:38.979Z,-2.80
2022-12-18T17:06:06.939Z,-2.70
2022-12-18T17:08:33.679Z,-2.80
2022-12-18T17:11:07.741Z,-2.80
2022-12-18T17:13:34.574Z,-2.70
2022-12-18T17:16:06.628Z,-2.70
2022-12-18T17:18:34.606Z,-2.60
2022-12-18T17:21:02.234Z,-2.60
2022-12-18T17:23:30.103Z,-2.60
2022-12-18T17:25:58.424Z,-2.60
2022-12-18T17:28:26.391Z,-2.60
2022-12-18T17:30:57.323Z,-2.50
2022-12-18T17:33:24.527Z,-2.60
2022-12-18T17:35:51.279Z,-2.60
2022-12-18T17:38:18.468Z,-2.50
2022-12-18T17:40:46.577Z,-2.50
2022-12-18T17:43:13.560Z,-2.50
2022-12-18T17:45:41.047Z,-2.50
2022-12-18T17:48:09.243Z,-2.60
2022-12-18T17:50:36.642Z,-2.60
2022-12-18T17:53:03.784Z,-2.70
2022-12-18T17:55:30.726Z,-2.70
2022-12-18T17:57:57.443Z,-2.70
2022-12-18T18:00:24.130Z,-2.60
2022-12-18T18:02:50.913Z,-2.50
2022-12-18T18:05:17.693Z,-2.40
2022-12-18T18:07:44.400Z,-2.40
2022-12-18T18:10:11.159Z,-2.30
2022-12-18T18:12:56.652Z,-2.30
2022-12-18T18:15:23.366Z,-2.30
2022-12-18T18:17:50.097Z,-2.20
2022-12-18T18:20:22.355Z,-2.20
2022-12-18T18:22:49.653Z,-2.30
2022-12-18T18:25:16.929Z,-2.30
2022-12-18T18:27:44.775Z,-2.30
2022-12-18T18:30:14.329Z,-2.30
2022-12-18T18:32:41.167Z,-2.30
2022-12-18T18:35:15.701Z,-2.30
2022-12-18T18:37:55.329Z,-2.30
2022-12-18T18:40:22.043Z,-2.30
2022-12-18T18:42:48.778Z,-2.20
2022-12-18T18:45:15.524Z,-2.20
2022-12-18T18:47:42.224Z,-2.20
2022-12-18T18:50:10.254Z,-2.10
2022-12-18T18:52:36.958Z,-2.10
2022-12-18T18:55:21.397Z,-2.10
2022-12-18T18:57:52.320Z,-2.10
2022-12-18T19:00:19.264Z,-2.20
2022-12-18T19:02:46.215Z,-2.20
2022-12-18T19:05:13.066Z,-2.20
2022-12-18T19:07:39.743Z,-2.20
2022-12-18T19:10:07.269Z,-2.10
2022-12-18T19:12:53.317Z,-2.00
2022-12-18T19:15:20.299Z,-2.00
2022-12-18T19:17:47.465Z,-2.00
2022-12-18T19:20:15.152Z,-1.90
2022-12-18T19:22:42.123Z,-1.80
2022-12-18T19:25:09.871Z,-1.80
2022-12-18T19:27:38.879Z,-1.80
2022-12-18T19:30:06.290Z,-1.80
2022-12-18T19:32:33.904Z,-1.80
2022-12-18T19:35:00.615Z,-1.80
2022-12-18T19:37:28.425Z,-1.80
2022-12-18T19:39:55.356Z,-1.80
2022-12-18T19:42:27.129Z,-1.70
2022-12-18T19:44:56.164Z,-1.80
2022-12-18T19:47:22.859Z,-1.80
2022-12-18T19:49:49.628Z,-1.80
2022-12-18T19:52:16.387Z,-1.80
2022-12-18T19:54:43.103Z,-1.80
2022-12-18T19:57:11.501Z,-1.80
2022-12-18T19:59:38.400Z,-1.80
2022-12-18T20:02:06.008Z,-1.80
2022-12-18T20:04:33.105Z,-1.80
2022-12-18T20:06:59.907Z,-1.80
2022-12-18T20:09:26.804Z,-1.90
2022-12-18T20:11:54.338Z,-1.80
2022-12-18T20:14:23.541Z,-1.80
2022-12-18T20:16:51.567Z,-1.80
2022-12-18T20:19:18.538Z,-1.70
2022-12-18T20:21:46.037Z,-1.70
2022-12-18T20:24:12.982Z,-1.60
2022-12-18T20:26:40.520Z,-1.60
2022-12-18T20:29:07.476Z,-1.50
2022-12-18T20:31:34.273Z,-1.50
2022-12-18T20:34:02.754Z,-1.50
2022-12-18T20:36:31.672Z,-1.50
2022-12-18T20:39:00.645Z,-1.50
2022-12-18T20:41:37.388Z,-1.50
2022-12-18T20:44:08.491Z,-1.50
2022-12-18T20:46:52.404Z,-1.50
2022-12-18T20:49:19.249Z,-1.50
2022-12-18T20:51:46.395Z,-1.50
2022-12-18T20:54:13.099Z,-1.50
2022-12-18T20:56:39.886Z,-1.50
2022-12-18T20:59:07.246Z,-1.40
2022-12-18T21:01:34.078Z,-1.40
2022-12-18T21:04:02.221Z,-1.40
2022-12-18T21:06:29.285Z,-1.40
2022-12-18T21:08:56.144Z,-1.40
2022-12-18T21:11:41.578Z,-1.30
2022-12-18T21:14:14.519Z,-1.30
2022-12-18T21:16:43.810Z,-1.30
2022-12-18T21:19:17.751Z,-1.30
2022-12-18T21:21:45.202Z,-1.30
2022-12-18T21:24:12.442Z,-1.30
2022-12-18T21:26:45.434Z,-1.30
2022-12-18T21:29:24.690Z,-1.20
2022-12-18T21:31:54.237Z,-1.30
2022-12-18T21:34:26.896Z,-1.30
2022-12-18T21:36:56.111Z,-1.30
2022-12-18T21:39:22.970Z,-1.30
2022-12-18T21:42:09.048Z,-1.20
2022-12-18T21:44:41.720Z,-1.30
2022-12-18T21:47:22.429Z,-1.30
2022-12-18T21:49:51.177Z,-1.20
2022-12-18T21:52:18.010Z,-1.20
2022-12-18T21:54:44.750Z,-1.30
2022-12-18T21:57:13.747Z,-1.30
2022-12-18T21:59:42.276Z,-1.20
2022-12-18T22:02:14.499Z,-1.20
2022-12-18T22:04:42.488Z,-1.20
2022-12-18T22:07:10.368Z,-1.10
2022-12-18T22:09:38.351Z,-1.10
2022-12-18T22:12:06.057Z,-1.10
2022-12-18T22:14:32.729Z,-1.10
2022-12-18T22:16:59.632Z,-1.00
2022-12-18T22:19:26.866Z,-1.00
2022-12-18T22:21:54.351Z,-1.00
2022-12-18T22:24:24.114Z,-1.00
2022-12-18T22:26:53.065Z,-1.00
2022-12-18T22:29:43.426Z,-1.00
2022-12-18T22:32:14.964Z,-1.10
2022-12-18T22:34:42.990Z,-1.10
2022-12-18T22:37:13.462Z,-1.10
2022-12-18T22:39:40.390Z,-1.10
2022-12-18T22:42:07.847Z,-1.00
2022-12-18T22:44:34.777Z,-1.00
2022-12-18T22:47:06.568Z,-1.00
2022-12-18T22:49:35.696Z,-1.10
2022-12-18T22:52:04.135Z,-1.10
2022-12-18T22:54:31.099Z,-1.10
2022-12-18T22:56:57.938Z,-1.10
2022-12-18T22:59:25.080Z,-1.10
2022-12-18T23:01:58.544Z,-1.10
2022-12-18T23:04:36.267Z,-1.10
2022-12-18T23:07:05.234Z,-1.10
2022-12-18T23:09:33.006Z,-1.00
2022-12-18T23:11:59.723Z,-1.00
2022-12-18T23:14:27.128Z,-1.00
2022-12-18T23:16:53.860Z,-0.90
2022-12-18T23:19:21.538Z,-0.90
2022-12-18T23:21:50.866Z,-0.90
2022-12-18T23:24:17.921Z,-0.90
2022-12-18T23:26:44.670Z,-1.00
2022-12-18T23:29:11.400Z,-1.00
2022-12-18T23:31:39.596Z,-1.00
2022-12-18T23:34:07.612Z,-1.00
2022-12-18T23:36:43.535Z,-1.00
2022-12-18T23:39:15.445Z,-1.00
2022-12-18T23:41:57.913Z,-1.00
2022-12-18T23:44:24.740Z,-0.90
2022-12-18T23:46:51.539Z,-0.90
2022-12-18T23:49:18.392Z,-0.80
2022-12-18T23:51:45.190Z,-0.80
2022-12-18T23:54:11.918Z,-0.80
2022-12-18T23:56:38.608Z,-0.80
2022-12-18T23:59:05.408Z,-0.80
